sensor_id;sensor_type;location;lat;lon;timestamp;pressure;altitude;pressure_sealevel;temperature;humidity
31585;BME280;18191;51.288;12.390;2022-11-15T00:01:40;49156.03;;;-144.47;93.50
31585;BME280;18191;51.288;12.390;2022-11-15T00:06:30;49187.88;;;-144.47;93.32
31585;BME280;18191;51.288;12.390;2022-11-15T00:11:21;49209.75;;;-144.47;93.79
31585;BME280;18191;51.288;12.390;2022-11-15T00:16:11;49211.75;;;-144.47;93.63
31585;BME280;18191;51.288;12.390;2022-11-15T00:21:05;49227.66;;;-144.47;94.42
31585;BME280;18191;51.288;12.390;2022-11-15T00:25:56;49193.84;;;-144.47;94.97
31585;BME280;18191;51.288;12.390;2022-11-15T00:30:47;49211.75;;;-144.47;94.76
31585;BME280;18191;51.288;12.390;2022-11-15T00:35:37;49227.66;;;-144.47;96.45
31585;BME280;18191;51.288;12.390;2022-11-15T00:40:27;49187.88;;;-144.47;96.66
31585;BME280;18191;51.288;12.390;2022-11-15T00:45:18;49215.72;;;-144.47;97.21
31585;BME280;18191;51.288;12.390;2022-11-15T00:50:08;49219.72;;;-144.47;97.46
31585;BME280;18191;51.288;12.390;2022-11-15T00:54:58;49156.03;;;-144.47;98.37
31585;BME280;18191;51.288;12.390;2022-11-15T00:59:48;49247.56;;;-144.47;99.16
31585;BME280;18191;51.288;12.390;2022-11-15T01:04:39;49203.78;;;-144.47;98.90
31585;BME280;18191;51.288;12.390;2022-11-15T01:09:29;49187.88;;;-144.47;99.30
31585;BME280;18191;51.288;12.390;2022-11-15T01:14:19;49195.84;;;-144.47;99.21
31585;BME280;18191;51.288;12.390;2022-11-15T01:19:09;49191.84;;;-144.47;98.77
31585;BME280;18191;51.288;12.390;2022-11-15T01:23:59;49235.63;;;-144.47;98.78
31585;BME280;18191;51.288;12.390;2022-11-15T01:28:50;49231.63;;;-144.47;98.37
31585;BME280;18191;51.288;12.390;2022-11-15T01:33:40;49231.63;;;-144.47;98.43
31585;BME280;18191;51.288;12.390;2022-11-15T01:38:31;49215.72;;;-144.47;97.93
31585;BME280;18191;51.288;12.390;2022-11-15T01:43:29;49227.66;;;-144.47;97.50
31585;BME280;18191;51.288;12.390;2022-11-15T01:48:19;49239.59;;;-144.47;97.52
31585;BME280;18191;51.288;12.390;2022-11-15T01:53:10;49255.50;;;-144.47;98.00
31585;BME280;18191;51.288;12.390;2022-11-15T01:58:01;49239.59;;;-144.47;97.86
31585;BME280;18191;51.288;12.390;2022-11-15T02:02:54;49215.72;;;-144.47;97.31
31585;BME280;18191;51.288;12.390;2022-11-15T02:07:44;49183.91;;;-144.47;96.39
31585;BME280;18191;51.288;12.390;2022-11-15T02:12:35;49221.69;;;-144.47;96.13
31585;BME280;18191;51.288;12.390;2022-11-15T02:17:35;49183.91;;;-144.47;95.63
31585;BME280;18191;51.288;12.390;2022-11-15T02:22:37;49219.72;;;-144.47;95.58
31585;BME280;18191;51.288;12.390;2022-11-15T02:32:44;49211.75;;;-144.47;94.72
31585;BME280;18191;51.288;12.390;2022-11-15T02:42:29;49223.69;;;-144.47;94.80
31585;BME280;18191;51.288;12.390;2022-11-15T02:47:41;49164.00;;;-144.47;95.00
31585;BME280;18191;51.288;12.390;2022-11-15T02:52:33;49209.75;;;-144.47;94.14
31585;BME280;18191;51.288;12.390;2022-11-15T02:57:51;49207.78;;;-144.47;95.14
31585;BME280;18191;51.288;12.390;2022-11-15T03:02:56;49215.72;;;-144.47;95.30
31585;BME280;18191;51.288;12.390;2022-11-15T03:12:51;49209.75;;;-144.47;95.98
31585;BME280;18191;51.288;12.390;2022-11-15T03:17:52;49175.94;;;-144.47;95.55
31585;BME280;18191;51.288;12.390;2022-11-15T03:22:45;49195.84;;;-144.47;95.32
31585;BME280;18191;51.288;12.390;2022-11-15T03:33:05;49167.97;;;-144.47;94.85
31585;BME280;18191;51.288;12.390;2022-11-15T03:37:59;49203.78;;;-144.47;94.90
31585;BME280;18191;51.288;12.390;2022-11-15T03:43:02;49203.78;;;-144.47;94.93
31585;BME280;18191;51.288;12.390;2022-11-15T03:48:03;49189.88;;;-144.47;95.12
31585;BME280;18191;51.288;12.390;2022-11-15T03:52:55;49215.72;;;-144.47;94.67
31585;BME280;18191;51.288;12.390;2022-11-15T03:57:46;49187.88;;;-144.47;95.02
31585;BME280;18191;51.288;12.390;2022-11-15T04:02:37;49175.94;;;-144.47;95.54
31585;BME280;18191;51.288;12.390;2022-11-15T04:07:28;49239.59;;;-144.47;95.10
31585;BME280;18191;51.288;12.390;2022-11-15T04:12:18;49199.81;;;-144.47;95.51
31585;BME280;18191;51.288;12.390;2022-11-15T04:17:20;49211.75;;;-144.47;95.02
31585;BME280;18191;51.288;12.390;2022-11-15T04:22:10;49189.88;;;-144.47;95.99
31585;BME280;18191;51.288;12.390;2022-11-15T04:27:22;49203.78;;;-144.47;95.91
31585;BME280;18191;51.288;12.390;2022-11-15T04:32:12;49225.66;;;-144.47;96.17
31585;BME280;18191;51.288;12.390;2022-11-15T04:37:02;49185.88;;;-144.47;95.87
31585;BME280;18191;51.288;12.390;2022-11-15T04:42:01;49195.84;;;-144.47;95.50
31585;BME280;18191;51.288;12.390;2022-11-15T04:46:52;49225.66;;;-144.47;95.81
31585;BME280;18191;51.288;12.390;2022-11-15T04:51:42;49231.63;;;-144.47;95.35
31585;BME280;18191;51.288;12.390;2022-11-15T04:56:32;49219.72;;;-144.47;95.27
31585;BME280;18191;51.288;12.390;2022-11-15T05:01:22;49187.88;;;-144.47;95.60
31585;BME280;18191;51.288;12.390;2022-11-15T05:06:12;49215.72;;;-144.47;95.67
31585;BME280;18191;51.288;12.390;2022-11-15T05:11:03;49183.91;;;-144.47;95.69
31585;BME280;18191;51.288;12.390;2022-11-15T05:15:53;49235.63;;;-144.47;95.95
31585;BME280;18191;51.288;12.390;2022-11-15T05:20:43;49193.84;;;-144.47;95.93
31585;BME280;18191;51.288;12.390;2022-11-15T05:25:35;49215.72;;;-144.47;96.53
31585;BME280;18191;51.288;12.390;2022-11-15T05:30:25;49207.78;;;-144.47;95.63
31585;BME280;18191;51.288;12.390;2022-11-15T05:35:20;49205.78;;;-144.47;95.77
31585;BME280;18191;51.288;12.390;2022-11-15T05:40:13;49191.84;;;-144.47;96.04
31585;BME280;18191;51.288;12.390;2022-11-15T05:45:03;49181.91;;;-144.47;96.68
31585;BME280;18191;51.288;12.390;2022-11-15T05:49:54;49209.75;;;-144.47;96.55
31585;BME280;18191;51.288;12.390;2022-11-15T05:54:45;49179.91;;;-144.47;96.47
31585;BME280;18191;51.288;12.390;2022-11-15T05:59:36;49195.84;;;-144.47;96.64
31585;BME280;18191;51.288;12.390;2022-11-15T06:04:26;49219.72;;;-144.47;96.43
31585;BME280;18191;51.288;12.390;2022-11-15T06:09:16;49239.59;;;-144.47;97.29
31585;BME280;18191;51.288;12.390;2022-11-15T06:14:07;49219.72;;;-144.47;97.52
31585;BME280;18191;51.288;12.390;2022-11-15T06:18:57;49189.88;;;-144.47;97.54
31585;BME280;18191;51.288;12.390;2022-11-15T06:23:47;49203.78;;;-144.47;97.48
31585;BME280;18191;51.288;12.390;2022-11-15T06:28:37;49191.84;;;-144.47;96.92
31585;BME280;18191;51.288;12.390;2022-11-15T06:33:27;49167.97;;;-144.47;96.57
31585;BME280;18191;51.288;12.390;2022-11-15T06:38:18;49179.91;;;-144.47;96.90
31585;BME280;18191;51.288;12.390;2022-11-15T06:43:08;49193.84;;;-144.47;97.30
31585;BME280;18191;51.288;12.390;2022-11-15T06:47:58;49209.75;;;-144.47;96.61
31585;BME280;18191;51.288;12.390;2022-11-15T06:52:48;49179.91;;;-144.47;96.49
31585;BME280;18191;51.288;12.390;2022-11-15T06:57:45;49219.72;;;-144.47;95.75
31585;BME280;18191;51.288;12.390;2022-11-15T07:02:36;49243.56;;;-144.47;95.80
31585;BME280;18191;51.288;12.390;2022-11-15T07:07:26;49203.78;;;-144.47;95.14
31585;BME280;18191;51.288;12.390;2022-11-15T07:12:16;49237.59;;;-144.47;95.00
31585;BME280;18191;51.288;12.390;2022-11-15T07:17:06;49237.59;;;-144.47;94.88
31585;BME280;18191;51.288;12.390;2022-11-15T07:21:57;49223.69;;;-144.47;94.38
31585;BME280;18191;51.288;12.390;2022-11-15T07:26:47;49191.84;;;-144.47;93.87
31585;BME280;18191;51.288;12.390;2022-11-15T07:31:37;49171.97;;;-144.47;93.25
31585;BME280;18191;51.288;12.390;2022-11-15T07:36:27;49207.78;;;-144.47;92.85
31585;BME280;18191;51.288;12.390;2022-11-15T07:41:18;49199.81;;;-144.47;92.11
31585;BME280;18191;51.288;12.390;2022-11-15T07:46:08;49215.72;;;-144.47;91.31
31585;BME280;18191;51.288;12.390;2022-11-15T07:50:59;49219.72;;;-144.47;90.93
31585;BME280;18191;51.288;12.390;2022-11-15T07:55:49;49215.72;;;-144.47;90.05
31585;BME280;18191;51.288;12.390;2022-11-15T08:00:39;49197.81;;;-144.47;88.78
31585;BME280;18191;51.288;12.390;2022-11-15T08:05:30;49183.91;;;-144.47;86.76
31585;BME280;18191;51.288;12.390;2022-11-15T08:10:20;49227.66;;;-144.47;86.66
31585;BME280;18191;51.288;12.390;2022-11-15T08:15:10;49215.72;;;-144.47;84.89
31585;BME280;18191;51.288;12.390;2022-11-15T08:20:00;49199.81;;;-144.47;85.12
31585;BME280;18191;51.288;12.390;2022-11-15T08:24:50;49195.84;;;-144.47;82.51
31585;BME280;18191;51.288;12.390;2022-11-15T08:29:42;49203.78;;;-144.47;81.84
31585;BME280;18191;51.288;12.390;2022-11-15T08:34:32;49160.03;;;-144.47;81.15
31585;BME280;18191;51.288;12.390;2022-11-15T08:39:22;49183.91;;;-144.47;79.28
31585;BME280;18191;51.288;12.390;2022-11-15T08:44:12;49207.78;;;-144.47;78.65
31585;BME280;18191;51.288;12.390;2022-11-15T08:49:02;49173.94;;;-144.47;77.55
31585;BME280;18191;51.288;12.390;2022-11-15T08:53:53;49187.88;;;-144.47;76.56
31585;BME280;18191;51.288;12.390;2022-11-15T08:58:43;49205.78;;;-144.47;75.95
31585;BME280;18191;51.288;12.390;2022-11-15T09:03:33;49179.91;;;-144.47;72.57
31585;BME280;18191;51.288;12.390;2022-11-15T09:08:24;49181.91;;;-144.47;72.26
31585;BME280;18191;51.288;12.390;2022-11-15T09:13:14;49195.84;;;-144.47;71.56
31585;BME280;18191;51.288;12.390;2022-11-15T09:18:04;49162.00;;;-144.47;70.39
31585;BME280;18191;51.288;12.390;2022-11-15T09:22:57;49183.91;;;-144.47;67.79
31585;BME280;18191;51.288;12.390;2022-11-15T09:27:48;49187.88;;;-144.47;70.09
31585;BME280;18191;51.288;12.390;2022-11-15T09:32:38;49158.03;;;-144.47;67.98
31585;BME280;18191;51.288;12.390;2022-11-15T09:37:31;49175.94;;;-144.47;68.07
31585;BME280;18191;51.288;12.390;2022-11-15T09:52:26;49152.06;;;-144.47;63.74
31585;BME280;18191;51.288;12.390;2022-11-15T09:57:21;49160.03;;;-144.47;63.14
31585;BME280;18191;51.288;12.390;2022-11-15T10:07:18;49152.06;;;-144.47;60.97
31585;BME280;18191;51.288;12.390;2022-11-15T10:12:09;49158.03;;;-144.47;61.95
31585;BME280;18191;51.288;12.390;2022-11-15T10:17:14;49152.06;;;-144.47;61.85
31585;BME280;18191;51.288;12.390;2022-11-15T10:27:09;49164.00;;;-144.47;59.99
31585;BME280;18191;51.288;12.390;2022-11-15T10:32:00;49124.22;;;-144.47;60.83
31585;BME280;18191;51.288;12.390;2022-11-15T10:36:54;49160.03;;;-144.47;59.96
31585;BME280;18191;51.288;12.390;2022-11-15T10:41:45;49156.03;;;-144.47;58.07
31585;BME280;18191;51.288;12.390;2022-11-15T10:46:35;49191.84;;;-144.47;55.55
31585;BME280;18191;51.288;12.390;2022-11-15T10:51:27;49138.16;;;-144.47;57.15
31585;BME280;18191;51.288;12.390;2022-11-15T10:56:18;49124.22;;;-144.47;56.65
31585;BME280;18191;51.288;12.390;2022-11-15T11:10:58;49171.97;;;-144.47;55.19
31585;BME280;18191;51.288;12.390;2022-11-15T11:15:51;49144.09;;;-144.47;51.97
31585;BME280;18191;51.288;12.390;2022-11-15T11:20:45;49183.91;;;-144.47;53.79
31585;BME280;18191;51.288;12.390;2022-11-15T11:46:14;49167.97;;;-144.47;53.57
31585;BME280;18191;51.288;12.390;2022-11-15T11:51:10;49171.97;;;-144.47;53.61
31585;BME280;18191;51.288;12.390;2022-11-15T11:56:02;49175.94;;;-144.47;54.85
31585;BME280;18191;51.288;12.390;2022-11-15T12:00:55;49160.03;;;-144.47;53.91
31585;BME280;18191;51.288;12.390;2022-11-15T12:05:50;49148.09;;;-144.47;53.10
31585;BME280;18191;51.288;12.390;2022-11-15T12:10:43;49144.09;;;-144.47;51.99
31585;BME280;18191;51.288;12.390;2022-11-15T12:15:37;49152.06;;;-144.47;52.74
31585;BME280;18191;51.288;12.390;2022-11-15T12:20:32;49177.94;;;-144.47;49.95
31585;BME280;18191;51.288;12.390;2022-11-15T12:25:25;49156.03;;;-144.47;53.50
31585;BME280;18191;51.288;12.390;2022-11-15T12:30:19;49179.91;;;-144.47;54.12
31585;BME280;18191;51.288;12.390;2022-11-15T12:35:21;49175.94;;;-144.47;53.04
31585;BME280;18191;51.288;12.390;2022-11-15T12:45:24;49191.84;;;-144.47;54.52
31585;BME280;18191;51.288;12.390;2022-11-15T12:50:14;49156.03;;;-144.47;52.29
31585;BME280;18191;51.288;12.390;2022-11-15T12:55:28;49152.06;;;-144.47;52.94
31585;BME280;18191;51.288;12.390;2022-11-15T13:24:51;49154.06;;;-144.47;50.98
31585;BME280;18191;51.288;12.390;2022-11-15T13:29:43;49146.09;;;-144.47;51.89
31585;BME280;18191;51.288;12.390;2022-11-15T13:34:33;49120.25;;;-144.47;52.29
31585;BME280;18191;51.288;12.390;2022-11-15T13:39:28;49167.97;;;-144.47;50.69
31585;BME280;18191;51.288;12.390;2022-11-15T13:44:20;49152.06;;;-144.47;47.89
31585;BME280;18191;51.288;12.390;2022-11-15T13:49:10;49185.88;;;-144.47;48.67
31585;BME280;18191;51.288;12.390;2022-11-15T13:54:02;49160.03;;;-144.47;47.04
31585;BME280;18191;51.288;12.390;2022-11-15T13:58:56;49100.34;;;-144.47;48.46
31585;BME280;18191;51.288;12.390;2022-11-15T14:04:09;49122.22;;;-144.47;49.34
31585;BME280;18191;51.288;12.390;2022-11-15T14:14:15;49108.31;;;-144.47;53.06
31585;BME280;18191;51.288;12.390;2022-11-15T14:19:08;49140.13;;;-144.47;54.23
31585;BME280;18191;51.288;12.390;2022-11-15T14:24:16;49179.91;;;-144.47;55.14
31585;BME280;18191;51.288;12.390;2022-11-15T14:29:25;49134.16;;;-144.47;57.39
31585;BME280;18191;51.288;12.390;2022-11-15T14:34:15;49164.00;;;-144.47;58.72
31585;BME280;18191;51.288;12.390;2022-11-15T14:39:06;49179.91;;;-144.47;60.84
31585;BME280;18191;51.288;12.390;2022-11-15T14:43:56;49175.94;;;-144.47;61.86
31585;BME280;18191;51.288;12.390;2022-11-15T14:48:46;49175.94;;;-144.47;62.82
31585;BME280;18191;51.288;12.390;2022-11-15T14:53:36;49162.00;;;-144.47;63.41
31585;BME280;18191;51.288;12.390;2022-11-15T14:58:27;49219.72;;;-144.47;65.07
31585;BME280;18191;51.288;12.390;2022-11-15T15:03:17;49156.03;;;-144.47;64.92
31585;BME280;18191;51.288;12.390;2022-11-15T15:08:07;49166.00;;;-144.47;65.00
31585;BME280;18191;51.288;12.390;2022-11-15T15:12:58;49144.09;;;-144.47;67.83
31585;BME280;18191;51.288;12.390;2022-11-15T15:17:48;49171.97;;;-144.47;68.34
31585;BME280;18191;51.288;12.390;2022-11-15T15:22:38;49189.88;;;-144.47;69.97
31585;BME280;18191;51.288;12.390;2022-11-15T15:27:29;49223.69;;;-144.47;71.42
31585;BME280;18191;51.288;12.390;2022-11-15T15:32:19;49171.97;;;-144.47;71.71
31585;BME280;18191;51.288;12.390;2022-11-15T15:37:43;49167.97;;;-144.47;73.04
31585;BME280;18191;51.288;12.390;2022-11-15T15:42:26;49195.84;;;-144.47;73.27
31585;BME280;18191;51.288;12.390;2022-11-15T15:47:17;49209.75;;;-144.47;74.53
31585;BME280;18191;51.288;12.390;2022-11-15T15:52:08;49169.97;;;-144.47;75.39
31585;BME280;18191;51.288;12.390;2022-11-15T15:56:58;49173.94;;;-144.47;75.94
31585;BME280;18191;51.288;12.390;2022-11-15T16:01:48;49179.91;;;-144.47;76.93
31585;BME280;18191;51.288;12.390;2022-11-15T16:06:39;49185.88;;;-144.47;77.11
31585;BME280;18191;51.288;12.390;2022-11-15T16:11:32;49164.00;;;-144.47;77.09
31585;BME280;18191;51.288;12.390;2022-11-15T16:16:22;49203.78;;;-144.47;77.58
31585;BME280;18191;51.288;12.390;2022-11-15T16:21:12;49215.72;;;-144.47;78.44
31585;BME280;18191;51.288;12.390;2022-11-15T16:26:04;49193.84;;;-144.47;79.00
31585;BME280;18191;51.288;12.390;2022-11-15T16:35:50;49179.91;;;-144.47;79.60
31585;BME280;18191;51.288;12.390;2022-11-15T16:40:41;49179.91;;;-144.47;80.14
31585;BME280;18191;51.288;12.390;2022-11-15T16:45:32;49219.72;;;-144.47;79.88
31585;BME280;18191;51.288;12.390;2022-11-15T16:50:24;49225.66;;;-144.47;80.65
31585;BME280;18191;51.288;12.390;2022-11-15T16:55:15;49207.78;;;-144.47;81.65
31585;BME280;18191;51.288;12.390;2022-11-15T17:00:05;49193.84;;;-144.47;81.33
31585;BME280;18191;51.288;12.390;2022-11-15T17:04:56;49215.72;;;-144.47;81.02
31585;BME280;18191;51.288;12.390;2022-11-15T17:09:46;49175.94;;;-144.47;81.78
31585;BME280;18191;51.288;12.390;2022-11-15T17:14:36;49175.94;;;-144.47;81.65
31585;BME280;18191;51.288;12.390;2022-11-15T17:19:27;49209.75;;;-144.47;81.65
31585;BME280;18191;51.288;12.390;2022-11-15T17:24:17;49181.91;;;-144.47;81.90
31585;BME280;18191;51.288;12.390;2022-11-15T17:29:09;49209.75;;;-144.47;82.78
31585;BME280;18191;51.288;12.390;2022-11-15T17:34:00;49227.66;;;-144.47;83.44
31585;BME280;18191;51.288;12.390;2022-11-15T17:38:51;49189.88;;;-144.47;83.00
31585;BME280;18191;51.288;12.390;2022-11-15T17:43:41;49213.75;;;-144.47;82.66
31585;BME280;18191;51.288;12.390;2022-11-15T17:48:32;49183.91;;;-144.47;83.63
31585;BME280;18191;51.288;12.390;2022-11-15T17:53:22;49211.75;;;-144.47;84.67
31585;BME280;18191;51.288;12.390;2022-11-15T17:58:13;49207.78;;;-144.47;84.61
31585;BME280;18191;51.288;12.390;2022-11-15T18:03:07;49173.94;;;-144.47;84.89
31585;BME280;18191;51.288;12.390;2022-11-15T18:07:58;49237.59;;;-144.47;84.28
31585;BME280;18191;51.288;12.390;2022-11-15T18:12:48;49191.84;;;-144.47;84.21
31585;BME280;18191;51.288;12.390;2022-11-15T18:17:38;49219.72;;;-144.47;84.18
31585;BME280;18191;51.288;12.390;2022-11-15T18:22:28;49156.03;;;-144.47;85.22
31585;BME280;18191;51.288;12.390;2022-11-15T18:27:19;49219.72;;;-144.47;85.84
31585;BME280;18191;51.288;12.390;2022-11-15T18:32:09;49191.84;;;-144.47;85.92
31585;BME280;18191;51.288;12.390;2022-11-15T18:37:04;49205.78;;;-144.47;85.72
31585;BME280;18191;51.288;12.390;2022-11-15T18:41:54;49219.72;;;-144.47;85.17
31585;BME280;18191;51.288;12.390;2022-11-15T18:46:44;49235.63;;;-144.47;85.49
31585;BME280;18191;51.288;12.390;2022-11-15T18:51:35;49215.72;;;-144.47;87.66
31585;BME280;18191;51.288;12.390;2022-11-15T18:56:27;49195.84;;;-144.47;87.71
31585;BME280;18191;51.288;12.390;2022-11-15T19:01:18;49199.81;;;-144.47;88.26
31585;BME280;18191;51.288;12.390;2022-11-15T19:06:10;49183.91;;;-144.47;88.44
31585;BME280;18191;51.288;12.390;2022-11-15T19:11:09;49207.78;;;-144.47;87.99
31585;BME280;18191;51.288;12.390;2022-11-15T19:16:00;49195.84;;;-144.47;87.79
31585;BME280;18191;51.288;12.390;2022-11-15T19:20:51;49197.81;;;-144.47;87.92
31585;BME280;18191;51.288;12.390;2022-11-15T19:25:41;49171.97;;;-144.47;86.88
31585;BME280;18191;51.288;12.390;2022-11-15T19:30:31;49221.69;;;-144.47;87.47
31585;BME280;18191;51.288;12.390;2022-11-15T19:35:21;49195.84;;;-144.47;86.54
31585;BME280;18191;51.288;12.390;2022-11-15T19:40:11;49199.81;;;-144.47;87.56
31585;BME280;18191;51.288;12.390;2022-11-15T19:45:02;49191.84;;;-144.47;88.17
31585;BME280;18191;51.288;12.390;2022-11-15T19:49:52;49197.81;;;-144.47;89.51
31585;BME280;18191;51.288;12.390;2022-11-15T19:54:42;49191.84;;;-144.47;89.73
31585;BME280;18191;51.288;12.390;2022-11-15T19:59:32;49183.91;;;-144.47;89.45
31585;BME280;18191;51.288;12.390;2022-11-15T20:04:22;49191.84;;;-144.47;89.61
31585;BME280;18191;51.288;12.390;2022-11-15T20:09:13;49221.69;;;-144.47;89.62
31585;BME280;18191;51.288;12.390;2022-11-15T20:14:04;49205.78;;;-144.47;89.68
31585;BME280;18191;51.288;12.390;2022-11-15T20:18:56;49195.84;;;-144.47;89.98
31585;BME280;18191;51.288;12.390;2022-11-15T20:23:47;49215.72;;;-144.47;90.03
31585;BME280;18191;51.288;12.390;2022-11-15T20:28:37;49175.94;;;-144.47;90.25
31585;BME280;18191;51.288;12.390;2022-11-15T20:33:28;49215.72;;;-144.47;90.03
31585;BME280;18191;51.288;12.390;2022-11-15T20:38:18;49253.53;;;-144.47;90.21
31585;BME280;18191;51.288;12.390;2022-11-15T20:43:11;49183.91;;;-144.47;89.71
31585;BME280;18191;51.288;12.390;2022-11-15T20:48:01;49235.63;;;-144.47;90.51
31585;BME280;18191;51.288;12.390;2022-11-15T20:52:52;49241.59;;;-144.47;91.78
31585;BME280;18191;51.288;12.390;2022-11-15T20:57:42;49211.75;;;-144.47;91.69
31585;BME280;18191;51.288;12.390;2022-11-15T21:02:32;49193.84;;;-144.47;91.86
31585;BME280;18191;51.288;12.390;2022-11-15T21:07:22;49249.53;;;-144.47;91.59
31585;BME280;18191;51.288;12.390;2022-11-15T21:12:13;49207.78;;;-144.47;91.84
31585;BME280;18191;51.288;12.390;2022-11-15T21:17:03;49181.91;;;-144.47;91.42
31585;BME280;18191;51.288;12.390;2022-11-15T21:21:53;49144.09;;;-144.47;91.36
31585;BME280;18191;51.288;12.390;2022-11-15T21:26:43;49221.69;;;-144.47;92.94
31585;BME280;18191;51.288;12.390;2022-11-15T21:31:34;49177.94;;;-144.47;93.87
31585;BME280;18191;51.288;12.390;2022-11-15T21:36:24;49199.81;;;-144.47;94.46
31585;BME280;18191;51.288;12.390;2022-11-15T21:41:14;49199.81;;;-144.47;94.08
31585;BME280;18191;51.288;12.390;2022-11-15T21:46:05;49191.84;;;-144.47;93.73
31585;BME280;18191;51.288;12.390;2022-11-15T21:50:56;49239.59;;;-144.47;93.59
31585;BME280;18191;51.288;12.390;2022-11-15T21:55:46;49179.91;;;-144.47;93.38
31585;BME280;18191;51.288;12.390;2022-11-15T22:00:37;49219.72;;;-144.47;93.32
31585;BME280;18191;51.288;12.390;2022-11-15T22:05:45;49179.91;;;-144.47;93.20
31585;BME280;18191;51.288;12.390;2022-11-15T22:10:36;49215.72;;;-144.47;91.47
31585;BME280;18191;51.288;12.390;2022-11-15T22:15:26;49191.84;;;-144.47;91.04
31585;BME280;18191;51.288;12.390;2022-11-15T22:20:16;49211.75;;;-144.47;92.08
31585;BME280;18191;51.288;12.390;2022-11-15T22:25:06;49219.72;;;-144.47;92.84
31585;BME280;18191;51.288;12.390;2022-11-15T22:29:57;49207.78;;;-144.47;93.17
31585;BME280;18191;51.288;12.390;2022-11-15T22:34:47;49207.78;;;-144.47;93.00
31585;BME280;18191;51.288;12.390;2022-11-15T22:39:37;49183.91;;;-144.47;93.01
31585;BME280;18191;51.288;12.390;2022-11-15T22:44:29;49199.81;;;-144.47;93.06
31585;BME280;18191;51.288;12.390;2022-11-15T22:49:19;49158.03;;;-144.47;93.30
31585;BME280;18191;51.288;12.390;2022-11-15T22:54:09;49199.81;;;-144.47;92.61
31585;BME280;18191;51.288;12.390;2022-11-15T22:59:00;49193.84;;;-144.47;92.41
31585;BME280;18191;51.288;12.390;2022-11-15T23:03:50;49187.88;;;-144.47;92.54
31585;BME280;18191;51.288;12.390;2022-11-15T23:08:40;49211.75;;;-144.47;92.29
31585;BME280;18191;51.288;12.390;2022-11-15T23:13:31;49207.78;;;-144.47;91.84
31585;BME280;18191;51.288;12.390;2022-11-15T23:18:21;49199.81;;;-144.47;91.89
31585;BME280;18191;51.288;12.390;2022-11-15T23:23:11;49213.75;;;-144.47;91.34
31585;BME280;18191;51.288;12.390;2022-11-15T23:28:02;49197.81;;;-144.47;90.87
31585;BME280;18191;51.288;12.390;2022-11-15T23:32:53;49215.72;;;-144.47;91.52
31585;BME280;18191;51.288;12.390;2022-11-15T23:38:02;49219.72;;;-144.47;91.00
31585;BME280;18191;51.288;12.390;2022-11-15T23:42:52;49189.88;;;-144.47;90.58
31585;BME280;18191;51.288;12.390;2022-11-15T23:47:42;49207.78;;;-144.47;90.89
31585;BME280;18191;51.288;12.390;2022-11-15T23:52:32;49221.69;;;-144.47;90.20
31585;BME280;18191;51.288;12.390;2022-11-15T23:57:23;49215.72;;;-144.47;90.09
